createdAt,value
2023-03-01T00:00:36.992Z,77.21
2023-03-01T00:03:29.434Z,77.29
2023-03-01T00:06:01.026Z,77.26
2023-03-01T00:08:35.975Z,77.18
2023-03-01T00:11:15.211Z,77.02
2023-03-01T00:13:49.057Z,76.97
2023-03-01T00:16:25.789Z,77.02
2023-03-01T00:18:58.784Z,77.16
2023-03-01T00:21:32.147Z,77.26
2023-03-01T00:24:06.277Z,77.81
2023-03-01T00:26:38.290Z,77.48
2023-03-01T00:29:10.247Z,77.78
2023-03-01T00:31:41.522Z,77.57
2023-03-01T00:34:15.845Z,77.69
2023-03-01T00:36:47.746Z,77.39
2023-03-01T00:39:20.978Z,77.36
2023-03-01T00:41:58.509Z,77.39
2023-03-01T00:44:31.657Z,77.40
2023-03-01T00:47:04.315Z,77.33
2023-03-01T00:49:37.266Z,77.36
2023-03-01T00:52:10.422Z,77.30
2023-03-01T00:54:43.144Z,77.46
2023-03-01T00:57:16.428Z,77.38
2023-03-01T00:59:54.097Z,77.45
2023-03-01T01:02:26.560Z,77.40
2023-03-01T01:04:58.022Z,77.34
2023-03-01T01:07:32.262Z,77.42
2023-03-01T01:10:18.120Z,77.28
2023-03-01T01:12:53.016Z,77.41
2023-03-01T01:15:24.925Z,77.51
2023-03-01T01:17:57.899Z,77.49
2023-03-01T01:20:30.029Z,77.52
2023-03-01T01:23:18.864Z,77.56
2023-03-01T01:25:52.131Z,77.62
2023-03-01T01:28:24.481Z,77.79
2023-03-01T01:30:57.050Z,77.53
2023-03-01T01:33:28.965Z,77.47
2023-03-01T01:36:01.969Z,77.37
2023-03-01T01:38:33.311Z,77.41
2023-03-01T01:41:08.841Z,77.54
2023-03-01T01:43:43.636Z,77.53
2023-03-01T01:46:28.830Z,77.44
2023-03-01T01:49:06.921Z,77.60
2023-03-01T01:51:41.905Z,77.70
2023-03-01T01:54:19.559Z,77.66
2023-03-01T01:56:58.385Z,77.68
2023-03-01T01:59:32.522Z,77.81
2023-03-01T02:02:08.490Z,77.74
2023-03-01T02:04:43.154Z,77.75
2023-03-01T02:07:20.185Z,77.85
2023-03-01T02:09:55.232Z,77.89
2023-03-01T02:12:28.215Z,77.73
2023-03-01T02:15:00.093Z,77.66
2023-03-01T02:17:35.338Z,77.80
2023-03-01T02:20:21.547Z,77.74
2023-03-01T02:22:56.030Z,77.89
2023-03-01T02:25:43.369Z,77.88
2023-03-01T02:28:27.589Z,77.76
2023-03-01T02:31:18.094Z,77.90
2023-03-01T02:33:50.805Z,78.20
2023-03-01T02:36:26.769Z,78.45
2023-03-01T02:39:03.314Z,78.28
2023-03-01T02:41:39.761Z,78.28
2023-03-01T02:44:17.078Z,78.40
2023-03-01T02:46:51.427Z,78.10
2023-03-01T02:49:28.502Z,78.22
2023-03-01T02:52:46.235Z,78.08
2023-03-01T02:55:21.556Z,78.32
2023-03-01T02:57:54.522Z,78.22
2023-03-01T03:00:34.954Z,78.11
2023-03-01T03:03:09.044Z,78.19
2023-03-01T03:05:41.445Z,78.42
2023-03-01T03:08:12.752Z,78.26
2023-03-01T03:10:46.525Z,78.20
2023-03-01T03:13:19.692Z,78.32
2023-03-01T03:15:57.026Z,78.34
2023-03-01T03:18:31.828Z,78.28
2023-03-01T03:21:04.832Z,78.42
2023-03-01T03:23:36.737Z,78.37
2023-03-01T03:26:09.582Z,78.52
2023-03-01T03:28:41.961Z,78.40
2023-03-01T03:31:14.644Z,78.69
2023-03-01T03:33:47.863Z,78.65
2023-03-01T03:36:22.728Z,78.62
2023-03-01T03:38:54.578Z,78.53
2023-03-01T03:41:27.600Z,78.75
2023-03-01T03:43:59.066Z,78.67
2023-03-01T03:46:32.109Z,78.62
2023-03-01T03:49:04.679Z,79.00
2023-03-01T03:51:37.147Z,78.73
2023-03-01T03:54:08.458Z,78.86
2023-03-01T03:56:41.050Z,78.99
2023-03-01T03:59:16.882Z,79.01
2023-03-01T04:01:49.585Z,78.85
2023-03-01T04:04:21.804Z,78.85
2023-03-01T04:06:51.755Z,79.03
2023-03-01T04:09:28.362Z,78.89
2023-03-01T04:11:59.104Z,78.85
2023-03-01T04:14:31.578Z,79.12
2023-03-01T04:17:05.935Z,78.91
2023-03-01T04:19:39.989Z,78.88
2023-03-01T04:22:11.727Z,79.04
2023-03-01T04:24:44.518Z,79.05
2023-03-01T04:27:15.503Z,78.80
2023-03-01T04:29:48.754Z,78.91
2023-03-01T04:32:20.134Z,78.73
2023-03-01T04:34:51.573Z,78.79
2023-03-01T04:37:23.614Z,78.84
2023-03-01T04:39:54.628Z,78.81
2023-03-01T04:42:25.668Z,78.63
2023-03-01T04:44:56.557Z,78.72
2023-03-01T04:47:29.530Z,78.72
2023-03-01T04:50:01.406Z,78.74
2023-03-01T04:52:35.926Z,78.64
2023-03-01T04:55:12.702Z,78.66
2023-03-01T04:57:44.607Z,78.74
2023-03-01T05:00:22.582Z,78.67
2023-03-01T05:02:57.387Z,78.70
2023-03-01T05:05:31.793Z,78.79
2023-03-01T05:08:07.637Z,78.78
2023-03-01T05:10:40.840Z,78.95
2023-03-01T05:13:16.037Z,79.06
2023-03-01T05:15:49.201Z,79.31
2023-03-01T05:18:22.686Z,79.49
2023-03-01T05:20:58.612Z,79.45
2023-03-01T05:23:29.854Z,79.44
2023-03-01T05:26:06.235Z,79.74
2023-03-01T05:28:40.427Z,79.71
2023-03-01T05:31:12.786Z,79.39
2023-03-01T05:33:47.361Z,79.66
2023-03-01T05:36:19.056Z,79.87
2023-03-01T05:38:51.105Z,79.59
2023-03-01T05:41:22.936Z,79.84
2023-03-01T05:43:56.408Z,79.98
2023-03-01T05:46:28.770Z,79.77
2023-03-01T05:49:01.843Z,80.14
2023-03-01T05:51:34.505Z,80.24
2023-03-01T05:54:09.212Z,80.20
2023-03-01T05:56:40.750Z,80.13
2023-03-01T05:59:17.935Z,80.48
2023-03-01T06:01:49.384Z,80.51
2023-03-01T06:04:22.573Z,80.73
2023-03-01T06:06:55.178Z,80.78
2023-03-01T06:09:29.785Z,80.57
2023-03-01T06:12:04.156Z,80.74
2023-03-01T06:14:36.518Z,80.81
2023-03-01T06:17:08.970Z,80.80
2023-03-01T06:19:45.692Z,80.91
2023-03-01T06:22:17.893Z,80.78
2023-03-01T06:24:51.374Z,80.79
2023-03-01T06:27:22.741Z,80.78
2023-03-01T06:29:56.224Z,80.86
2023-03-01T06:32:30.577Z,80.81
2023-03-01T06:35:04.327Z,80.93
2023-03-01T06:37:36.688Z,80.84
2023-03-01T06:40:13.272Z,80.71
2023-03-01T06:42:50.071Z,80.83
2023-03-01T06:45:22.039Z,80.76
2023-03-01T06:48:02.534Z,80.73
2023-03-01T06:50:36.360Z,80.74
2023-03-01T06:53:09.348Z,80.71
2023-03-01T06:55:43.176Z,80.68
2023-03-01T06:58:15.126Z,80.72
2023-03-01T07:00:49.027Z,80.86
2023-03-01T07:03:21.650Z,80.89
2023-03-01T07:05:53.467Z,80.87
2023-03-01T07:08:26.286Z,80.86
2023-03-01T07:11:03.064Z,80.57
2023-03-01T07:13:36.624Z,80.35
2023-03-01T07:16:11.510Z,80.57
2023-03-01T07:18:44.421Z,80.40
2023-03-01T07:21:19.626Z,80.35
2023-03-01T07:23:52.254Z,80.51
2023-03-01T07:26:26.208Z,80.19
2023-03-01T07:29:02.113Z,80.22
2023-03-01T07:31:35.566Z,80.21
2023-03-01T07:34:07.296Z,80.08
2023-03-01T07:36:44.589Z,80.27
2023-03-01T07:39:18.610Z,80.13
2023-03-01T07:41:54.073Z,80.28
2023-03-01T07:44:27.216Z,80.04
2023-03-01T07:47:00.191Z,79.90
2023-03-01T07:49:33.239Z,80.03
2023-03-01T07:52:07.815Z,79.77
2023-03-01T07:54:40.261Z,79.69
2023-03-01T07:57:12.152Z,79.87
2023-03-01T07:59:44.535Z,79.81
2023-03-01T08:02:17.045Z,80.01
2023-03-01T08:04:53.975Z,79.87
2023-03-01T08:07:25.002Z,79.76
2023-03-01T08:09:57.520Z,79.67
2023-03-01T08:12:30.603Z,79.84
2023-03-01T08:15:03.458Z,79.41
2023-03-01T08:17:34.972Z,79.09
2023-03-01T08:20:13.868Z,78.79
2023-03-01T08:22:45.964Z,78.83
2023-03-01T08:25:18.367Z,78.66
2023-03-01T08:27:51.013Z,78.53
2023-03-01T08:30:25.157Z,78.38
2023-03-01T08:32:57.197Z,78.55
2023-03-01T08:35:28.869Z,78.34
2023-03-01T08:38:01.936Z,78.29
2023-03-01T08:40:34.495Z,78.29
2023-03-01T08:43:08.920Z,78.53
2023-03-01T08:45:44.527Z,78.28
2023-03-01T08:48:16.652Z,78.51
2023-03-01T08:50:51.150Z,78.33
2023-03-01T08:53:24.444Z,78.11
2023-03-01T08:55:55.692Z,78.21
2023-03-01T08:58:28.024Z,78.12
2023-03-01T09:00:59.780Z,78.23
2023-03-01T09:03:33.768Z,78.02
2023-03-01T09:06:08.057Z,78.53
2023-03-01T09:08:42.163Z,78.31
2023-03-01T09:11:17.301Z,78.35
2023-03-01T09:13:52.571Z,78.32
2023-03-01T09:16:25.650Z,78.24
2023-03-01T09:18:59.683Z,78.02
2023-03-01T09:21:40.229Z,78.18
2023-03-01T09:24:16.681Z,78.16
2023-03-01T09:26:50.702Z,77.80
2023-03-01T09:29:25.168Z,78.19
2023-03-01T09:32:06.458Z,78.11
2023-03-01T09:34:53.016Z,78.24
2023-03-01T09:37:29.284Z,78.55
2023-03-01T09:40:07.860Z,78.53
2023-03-01T09:42:59.092Z,78.40
2023-03-01T09:45:39.263Z,78.36
2023-03-01T09:48:18.770Z,78.33
2023-03-01T09:50:54.604Z,78.05
2023-03-01T09:53:34.674Z,78.26
2023-03-01T09:56:24.215Z,78.20
2023-03-01T09:59:06.302Z,78.04
2023-03-01T10:01:46.228Z,78.06
2023-03-01T10:05:08.878Z,78.36
2023-03-01T10:07:53.531Z,78.62
2023-03-01T10:10:35.146Z,78.57
2023-03-01T10:13:19.133Z,78.68
2023-03-01T10:15:56.621Z,78.57
2023-03-01T10:18:39.775Z,78.49
2023-03-01T10:21:21.884Z,78.63
2023-03-01T10:24:01.024Z,78.50
2023-03-01T10:26:55.727Z,78.29
2023-03-01T10:29:39.237Z,77.88
2023-03-01T10:32:14.249Z,77.91
2023-03-01T10:34:48.811Z,77.72
2023-03-01T10:37:25.152Z,77.53
2023-03-01T10:40:02.212Z,77.22
2023-03-01T10:42:39.699Z,77.14
2023-03-01T10:45:39.795Z,76.83
2023-03-01T10:48:22.848Z,76.75
2023-03-01T10:51:22.111Z,76.73
2023-03-01T10:53:56.865Z,76.49
2023-03-01T10:56:35.311Z,75.95
2023-03-01T10:59:22.593Z,76.06
2023-03-01T11:02:24.609Z,75.53
2023-03-01T11:05:07.086Z,75.53
2023-03-01T11:07:53.422Z,75.08
2023-03-01T11:10:28.799Z,75.05
2023-03-01T11:13:16.083Z,74.79
2023-03-01T11:16:02.450Z,74.80
2023-03-01T11:18:47.045Z,74.46
2023-03-01T11:21:20.117Z,74.15
2023-03-01T11:23:51.927Z,74.02
2023-03-01T11:26:24.842Z,73.67
2023-03-01T11:29:01.444Z,73.63
2023-03-01T11:31:35.141Z,73.32
2023-03-01T11:34:13.018Z,72.98
2023-03-01T11:36:56.340Z,72.81
2023-03-01T11:39:35.417Z,72.62
2023-03-01T11:42:19.447Z,71.68
2023-03-01T11:44:57.495Z,70.92
2023-03-01T11:47:40.396Z,70.70
2023-03-01T11:50:31.444Z,70.25
2023-03-01T11:53:19.993Z,69.61
2023-03-01T11:56:05.951Z,68.95
2023-03-01T11:58:56.668Z,69.71
2023-03-01T12:02:15.250Z,69.93
2023-03-01T12:05:20.159Z,69.58
2023-03-01T12:07:58.746Z,68.95
2023-03-01T12:10:37.712Z,69.43
2023-03-01T12:13:39.464Z,68.85
2023-03-01T12:16:38.716Z,68.73
2023-03-01T12:19:26.968Z,68.33
2023-03-01T12:22:14.326Z,68.02
2023-03-01T12:25:13.037Z,68.30
2023-03-01T12:28:11.665Z,67.69
2023-03-01T12:31:26.954Z,68.01
2023-03-01T12:34:09.377Z,67.81
2023-03-01T12:36:55.357Z,67.78
2023-03-01T12:39:44.460Z,68.00
2023-03-01T12:42:24.000Z,67.45
2023-03-01T12:45:14.126Z,67.83
2023-03-01T12:48:01.877Z,67.87
2023-03-01T12:50:41.666Z,67.66
2023-03-01T12:53:27.003Z,68.27
2023-03-01T12:56:04.350Z,68.19
2023-03-01T12:58:49.705Z,67.95
2023-03-01T13:01:32.360Z,67.84
2023-03-01T13:04:37.810Z,68.01
2023-03-01T13:07:32.074Z,67.65
2023-03-01T13:10:21.628Z,67.54
2023-03-01T13:13:13.395Z,67.51
2023-03-01T13:15:48.125Z,67.43
2023-03-01T13:18:37.766Z,67.45
2023-03-01T13:21:09.916Z,66.95
2023-03-01T13:23:49.201Z,66.76
2023-03-01T13:26:21.444Z,66.69
2023-03-01T13:28:58.019Z,66.89
2023-03-01T13:32:04.103Z,66.77
2023-03-01T13:34:56.504Z,67.06
2023-03-01T13:37:36.345Z,66.54
2023-03-01T13:40:50.103Z,66.43
2023-03-01T13:43:33.749Z,66.60
2023-03-01T13:46:11.840Z,66.78
2023-03-01T13:48:49.565Z,66.07
2023-03-01T13:51:25.901Z,66.49
2023-03-01T13:54:00.572Z,66.70
2023-03-01T13:56:41.566Z,66.54
2023-03-01T13:59:18.837Z,66.21
2023-03-01T14:01:57.875Z,66.72
2023-03-01T14:04:33.132Z,66.46
2023-03-01T14:07:22.313Z,66.41
2023-03-01T14:09:56.612Z,66.57
2023-03-01T14:12:41.818Z,66.48
2023-03-01T14:15:21.419Z,66.30
2023-03-01T14:18:02.137Z,66.46
2023-03-01T14:20:41.554Z,66.27
2023-03-01T14:23:17.698Z,66.59
2023-03-01T14:25:52.527Z,66.52
2023-03-01T14:28:29.596Z,66.43
2023-03-01T14:31:03.498Z,66.56
2023-03-01T14:33:37.769Z,66.42
2023-03-01T14:36:11.162Z,66.77
2023-03-01T14:38:43.455Z,66.97
2023-03-01T14:41:19.126Z,66.95
2023-03-01T14:43:54.196Z,66.75
2023-03-01T14:46:31.270Z,66.61
2023-03-01T14:49:12.890Z,66.87
2023-03-01T14:51:52.348Z,66.84
2023-03-01T14:54:29.264Z,66.76
2023-03-01T14:57:03.310Z,66.57
2023-03-01T14:59:37.598Z,67.03
2023-03-01T15:02:19.877Z,67.06
2023-03-01T15:04:57.931Z,66.68
2023-03-01T15:07:34.676Z,67.17
2023-03-01T15:10:18.771Z,66.85
2023-03-01T15:12:52.692Z,66.85
2023-03-01T15:15:57.065Z,67.25
2023-03-01T15:18:32.641Z,67.00
2023-03-01T15:21:17.605Z,67.02
2023-03-01T15:23:54.731Z,67.28
2023-03-01T15:26:33.990Z,67.30
2023-03-01T15:29:06.072Z,67.35
2023-03-01T15:31:41.833Z,67.49
2023-03-01T15:34:25.232Z,67.60
2023-03-01T15:37:01.122Z,67.65
2023-03-01T15:39:45.028Z,67.81
2023-03-01T15:42:39.919Z,67.82
2023-03-01T15:45:26.482Z,67.88
2023-03-01T15:48:02.823Z,68.07
2023-03-01T15:50:38.934Z,68.32
2023-03-01T15:53:14.924Z,68.23
2023-03-01T15:55:48.792Z,68.40
2023-03-01T15:58:23.344Z,68.52
2023-03-01T16:01:01.246Z,68.65
2023-03-01T16:03:37.061Z,68.61
2023-03-01T16:06:13.187Z,68.71
2023-03-01T16:08:44.503Z,68.57
2023-03-01T16:11:21.424Z,68.79
2023-03-01T16:13:55.699Z,68.79
2023-03-01T16:16:29.138Z,69.03
2023-03-01T16:19:02.597Z,69.13
2023-03-01T16:21:37.608Z,69.24
2023-03-01T16:24:11.647Z,69.21
2023-03-01T16:26:44.730Z,69.45
2023-03-01T16:29:18.362Z,69.36
2023-03-01T16:31:51.605Z,69.42
2023-03-01T16:34:24.016Z,69.26
2023-03-01T16:36:54.368Z,69.47
2023-03-01T16:39:25.497Z,69.68
2023-03-01T16:41:58.214Z,69.37
2023-03-01T16:44:30.041Z,69.53
2023-03-01T16:47:04.423Z,69.68
2023-03-01T16:49:35.597Z,69.89
2023-03-01T16:52:07.917Z,69.81
2023-03-01T16:54:44.219Z,70.10
2023-03-01T16:57:17.110Z,69.93
2023-03-01T16:59:48.090Z,70.22
2023-03-01T17:02:21.441Z,70.33
2023-03-01T17:04:56.645Z,70.39
2023-03-01T17:07:28.781Z,70.53
2023-03-01T17:10:01.039Z,70.58
2023-03-01T17:12:35.655Z,70.73
2023-03-01T17:15:13.088Z,70.83
2023-03-01T17:17:44.197Z,70.98
2023-03-01T17:20:16.659Z,71.02
2023-03-01T17:22:52.711Z,71.09
2023-03-01T17:25:26.329Z,71.22
2023-03-01T17:27:57.592Z,71.23
2023-03-01T17:30:30.229Z,71.39
2023-03-01T17:33:03.448Z,71.44
2023-03-01T17:35:37.581Z,71.62
2023-03-01T17:38:11.474Z,71.56
2023-03-01T17:40:45.837Z,71.83
2023-03-01T17:43:21.981Z,71.97
2023-03-01T17:45:54.644Z,71.98
2023-03-01T17:48:28.186Z,72.12
2023-03-01T17:51:00.345Z,72.20
2023-03-01T17:53:34.749Z,72.38
2023-03-01T17:56:10.293Z,72.38
2023-03-01T17:58:43.520Z,72.55
2023-03-01T18:01:16.838Z,72.87
2023-03-01T18:03:51.551Z,72.96
2023-03-01T18:06:24.610Z,72.96
2023-03-01T18:08:56.929Z,73.24
2023-03-01T18:11:29.881Z,73.15
2023-03-01T18:14:01.498Z,73.06
2023-03-01T18:16:34.923Z,73.30
2023-03-01T18:19:07.965Z,73.45
2023-03-01T18:21:39.880Z,73.51
2023-03-01T18:24:17.912Z,73.59
2023-03-01T18:26:51.892Z,73.87
2023-03-01T18:29:23.509Z,73.87
2023-03-01T18:31:54.734Z,73.98
2023-03-01T18:34:28.302Z,73.90
2023-03-01T18:37:09.230Z,74.28
2023-03-01T18:39:41.388Z,74.20
2023-03-01T18:42:14.502Z,73.96
2023-03-01T18:44:49.776Z,74.29
2023-03-01T18:47:21.950Z,74.52
2023-03-01T18:49:56.230Z,74.57
2023-03-01T18:52:27.110Z,74.95
2023-03-01T18:54:57.900Z,74.88
2023-03-01T18:57:31.527Z,74.93
2023-03-01T19:00:05.983Z,75.32
2023-03-01T19:02:39.000Z,75.75
2023-03-01T19:05:15.800Z,75.76
2023-03-01T19:07:47.821Z,76.22
2023-03-01T19:10:19.986Z,75.88
2023-03-01T19:12:52.325Z,75.76
2023-03-01T19:15:28.864Z,75.82
2023-03-01T19:18:04.130Z,75.82
2023-03-01T19:20:37.825Z,75.85
2023-03-01T19:23:13.624Z,75.78
2023-03-01T19:25:46.323Z,75.54
2023-03-01T19:28:17.153Z,76.12
2023-03-01T19:30:49.938Z,75.60
2023-03-01T19:33:20.440Z,75.52
2023-03-01T19:35:55.173Z,75.86
2023-03-01T19:38:29.286Z,76.13
2023-03-01T19:41:06.252Z,76.68
2023-03-01T19:43:41.524Z,76.60
2023-03-01T19:46:14.608Z,76.88
2023-03-01T19:48:49.320Z,76.79
2023-03-01T19:51:21.892Z,76.83
2023-03-01T19:53:55.893Z,76.95
2023-03-01T19:56:29.104Z,77.01
2023-03-01T19:59:05.983Z,76.97
2023-03-01T20:01:42.427Z,77.07
2023-03-01T20:04:14.177Z,77.12
2023-03-01T20:06:48.284Z,77.36
2023-03-01T20:09:22.093Z,77.65
2023-03-01T20:11:54.656Z,77.61
2023-03-01T20:14:27.684Z,77.75
2023-03-01T20:17:01.141Z,77.71
2023-03-01T20:19:33.268Z,77.86
2023-03-01T20:22:05.181Z,77.76
2023-03-01T20:24:38.187Z,78.00
2023-03-01T20:27:12.578Z,78.08
2023-03-01T20:29:49.028Z,78.19
2023-03-01T20:32:20.250Z,78.03
2023-03-01T20:34:55.769Z,78.07
2023-03-01T20:37:30.442Z,78.12
2023-03-01T20:40:04.773Z,77.91
2023-03-01T20:42:36.920Z,78.45
2023-03-01T20:45:12.490Z,78.25
2023-03-01T20:47:44.531Z,78.17
2023-03-01T20:50:19.605Z,78.66
2023-03-01T20:52:51.716Z,78.72
2023-03-01T20:55:23.512Z,78.68
2023-03-01T20:57:56.736Z,78.88
2023-03-01T21:00:28.943Z,78.82
2023-03-01T21:03:01.113Z,78.81
2023-03-01T21:05:32.937Z,79.08
2023-03-01T21:08:06.754Z,78.77
2023-03-01T21:10:39.877Z,78.77
2023-03-01T21:13:11.664Z,78.83
2023-03-01T21:15:42.979Z,79.17
2023-03-01T21:18:16.302Z,79.14
2023-03-01T21:20:48.170Z,79.09
2023-03-01T21:23:20.756Z,79.03
2023-03-01T21:26:04.411Z,79.04
2023-03-01T21:28:38.732Z,79.27
2023-03-01T21:31:18.647Z,79.35
2023-03-01T21:33:52.292Z,79.51
2023-03-01T21:36:24.905Z,79.30
2023-03-01T21:38:58.991Z,79.43
2023-03-01T21:41:32.288Z,79.81
2023-03-01T21:44:06.884Z,79.59
2023-03-01T21:46:41.426Z,80.00
2023-03-01T21:49:14.987Z,79.73
2023-03-01T21:51:48.928Z,79.62
2023-03-01T21:54:23.273Z,79.68
2023-03-01T21:56:57.746Z,80.03
2023-03-01T21:59:31.154Z,80.13
2023-03-01T22:02:03.773Z,80.10
2023-03-01T22:04:36.851Z,79.87
2023-03-01T22:07:08.841Z,79.97
2023-03-01T22:09:42.568Z,80.29
2023-03-01T22:12:17.342Z,80.14
2023-03-01T22:14:50.756Z,80.16
2023-03-01T22:17:23.598Z,80.12
2023-03-01T22:19:57.269Z,80.14
2023-03-01T22:22:29.869Z,80.24
2023-03-01T22:25:02.073Z,80.30
2023-03-01T22:27:38.035Z,80.47
2023-03-01T22:30:15.537Z,80.56
2023-03-01T22:32:49.003Z,80.43
2023-03-01T22:35:21.210Z,80.53
2023-03-01T22:37:53.454Z,80.49
2023-03-01T22:40:26.976Z,80.53
2023-03-01T22:42:58.896Z,80.56
2023-03-01T22:45:35.966Z,80.70
2023-03-01T22:48:06.756Z,81.08
2023-03-01T22:50:38.113Z,81.11
2023-03-01T22:53:10.389Z,81.33
2023-03-01T22:55:43.755Z,81.23
2023-03-01T22:58:16.901Z,81.31
2023-03-01T23:00:48.780Z,81.44
2023-03-01T23:03:20.474Z,82.10
2023-03-01T23:05:53.585Z,83.54
2023-03-01T23:08:26.972Z,84.30
2023-03-01T23:10:59.407Z,85.15
2023-03-01T23:13:31.481Z,85.21
2023-03-01T23:16:04.192Z,85.17
2023-03-01T23:18:38.809Z,85.41
2023-03-01T23:21:37.067Z,85.66
2023-03-01T23:24:08.386Z,85.84
2023-03-01T23:26:43.074Z,86.20
2023-03-01T23:29:15.924Z,86.26
2023-03-01T23:31:46.499Z,87.05
2023-03-01T23:34:19.943Z,87.20
2023-03-01T23:36:55.733Z,87.31
2023-03-01T23:39:29.340Z,87.41
2023-03-01T23:42:01.209Z,87.37
2023-03-01T23:44:33.241Z,87.93
2023-03-01T23:47:08.001Z,88.05
2023-03-01T23:49:40.803Z,88.99
2023-03-01T23:52:17.011Z,88.99
2023-03-01T23:54:48.589Z,88.69
2023-03-01T23:57:21.922Z,88.52
2023-03-01T23:59:56.670Z,89.01
